Accueil
METAR-TAF:

METAR-TAF

Aéroports :

Mc Elroy Airfield

Kremmling, Colorado, États-Unis

latitude: 40-03-13N, longitude: 106-22-08W, altitude: 2259 m

Observation

Le bulletin a été fait il y a 32 minutes, à 15:30 UTC
Vent calme
Température 16°C
Humidité 48%
Pression 1029 hPa
Visibilité: 16.1 km
Ciel clair

METAR: K20V 021530Z AUTO 00000KT 10SM CLR 16/05 A3038 RMK AO2

Heure: 10:02 (16:02 UTC)


TAF: absent

Observations et prévisions météorologiques de plus de 4000 aéroports (messages METAR et TAF).

Les stations disponibles sont représentées par des disques jaunes et rouges sur la carte.

Passer la souris dessus pour voir le nom de la station.

Cliquer dessus pour voir les observations et prévisions météorologiques.

Pour changer de carte: cliquez sur les boutons verts avec une croix noire pour zoomer, sur le bouton vert avec un tiret pour effectuer un zoom arrière, ou sur les flèches vertes pour les cartes adjacentes.


METAR-TAF: